Date TemperatureHighC TemperatureAvgC TemperatureLowC DewpointHighC DewpointAvgC DewpointLowC HumidityHigh HumidityAvg HumidityLow PressureMaxhPa PressureMinhPa WindSpeedMaxKMH WindSpeedAvgKMH GustSpeedMaxKMH PrecipitationSumCM
2011-3-2 15.6 7.2 4.3 14.4 4.7 1.3 98 85 81 1019 1013 16 7 29 8.36
2011-3-3 8.5 6.6 4.3 6.7 3.8 0.4 91 82 72 1025 1018 13 4 27 3.89
2011-3-4 15.2 9.9 6.5 5.7 3.1 0.4 91 64 46 1026 1022 14 3 31 0.00
2011-3-5 17.2 11.2 5.4 5.1 2.6 0.3 87 57 38 1036 1016 8 1 11 0.00
2011-3-6 19.2 9.6 4.1 7.7 5.2 2.7 97 76 42 1020 1016 8 1 14 0.10
2011-3-7 13.6 8.0 2.8 -2.1 -7.2 -11.2 50 34 26 1035 1023 19 6 37 0.00
2011-3-8 15.0 5.6 -0.2 -3.4 -6.9 -10.9 73 42 26 1034 1028 11 2 21 0.00
2011-3-9 14.6 6.4 -1.8 -0.3 -2.5 -6.2 88 56 35 1028 1023 7 2 17 0.00
2011-3-10 15.7 8.1 1.7 1.7 0.2 -0.8 90 61 37 1026 1023 9 2 15 0.00
2011-3-11 16.6 7.8 1.5 4.4 2.3 -0.1 98 72 40 1026 1023 10 2 16 0.00
2011-3-12 12.8 10.6 5.2 6.0 3.9 2.2 88 64 53 1024 1017 9 3 20 0.00
2011-3-13 20.2 10.7 9.1 12.9 7.9 3.6 100 84 61 1018 1009 12 4 23 1.37
2011-3-15 19.5 16.1 13.1 11.5 9.7 8.4 81 66 55 1019 1013 8 2 18 0.20
2011-3-16 15.6 12.5 7.4 14.7 11.3 7.2 100 93 75 1009 1006 5 1 12 0.97
2011-3-17 14.5 10.7 7.2 10.9 9.7 7.2 100 94 74 1013 1007 7 1 12 0.08
2011-3-18 21.8 12.3 5.5 14.4 8.2 5.5 100 80 46 1021 1012 7 1 15 0.00
2011-3-19 22.1 11.8 5.4 11.7 7.1 3.5 100 76 37 1021 1019 9 2 14 1.78
2011-3-20 18.7 11.6 6.8 2.9 -1.8 -5.8 56 40 28 1027 1020 14 4 32 0.00
2011-3-21 15.4 8.8 1.3 -0.7 -3.4 -6.6 65 43 32 1031 1027 14 4 28 0.00
2011-3-22 20.6 11.6 5.4 4.8 1.1 -2.9 75 50 33 1033 1030 10 3 22 0.00
2011-3-23 23.3 12.3 4.9 3.2 0.4 -3.3 87 47 23 1035 1032 9 2 20 0.00
2011-3-24 23.9 12.7 3.1 5.0 1.9 -1.1 87 53 24 1036 1032 9 2 14 0.00
2011-3-25 21.3 11.7 4.0 9.5 5.7 1.7 100 70 34 1032 1024 9 2 19 0.00
2011-3-26 20.8 12.7 7.1 10.9 8.0 5.9 100 77 43 1024 1018 9 2 19 0.00
2011-3-27 18.8 11.8 5.6 11.3 8.4 5.4 100 81 51 1022 1018 6 2 14 0.00
2011-3-28 20.9 13.3 9.8 14.1 10.7 6.8 100 86 46 1018 1012 9 2 16 0.76
2011-3-29 21.8 12.3 7.7 13.0 9.7 7.3 100 86 43 1020 1016 7 1 12 0.10
2011-3-30 22.8 12.4 5.4 14.1 8.1 5.4 100 79 42 1023 1018 9 1 17 0.10
2011-3-31 24.1 14.1 5.3 13.7 7.1 3.3 100 68 35 1027 1022 9 1 18 0.00
2011-4-1 25.2 7.7 6.7 3.9 3.6 3.3 81 76 70 1027 1024 6 0 12 2.74
2011-4-2 26.0 15.8 6.6 10.9 7.7 4.6 90 64 28 1025 1021 7 1 14 0.00
2011-4-3 27.7 15.7 4.9 10.3 6.9 4.1 97 62 31 1021 1018 8 1 16 0.00
2011-4-4 25.1 15.6 7.7 12.8 7.9 6.8 98 65 34 1021 1018 7 1 10 0.00
2011-4-5 24.4 16.3 9.4 13.4 5.6 -1.7 99 56 25 1029 1019 10 2 26 0.00
2011-4-6 27.2 16.0 5.7 7.7 3.7 -0.5 73 48 23 1030 1027 6 1 13 0.00
2011-4-7 30.9 17.7 8.3 11.8 5.6 0.9 81 50 20 1030 1024 9 1 17 0.00
2011-4-8 28.9 20.2 11.7 8.9 5.6 0.4 75 40 25 1025 1018 7 2 14 0.00
2011-4-9 26.9 19.3 8.5 13.6 10.9 7.2 94 62 37 1020 1016 9 2 16 0.00
2011-4-10 26.9 17.2 8.6 14.1 11.7 8.4 100 74 42 1020 1016 6 1 12 0.00
2011-4-11 29.7 19.4 9.2 9.8 5.4 0.1 92 45 20 1023 1020 8 2 13 0.00
2011-4-12 26.5 16.8 8.1 13.8 9.7 5.7 91 66 34 1021 1013 6 1 12 0.00
2011-4-13 22.4 15.4 8.3 13.6 3.5 -3.6 93 51 22 1020 1013 14 3 31 0.00
2011-4-14 18.7 10.7 5.7 8.1 2.4 -2.9 96 60 35 1020 1014 7 2 18 0.20
2011-4-15 14.5 10.8 7.9 6.9 5.1 0.7 92 69 51 1017 1012 10 2 18 0.13
2011-4-16 21.9 14.2 9.6 3.3 0.7 -1.0 52 40 28 1021 1016 12 4 27 0.33
2011-4-17 24.8 14.8 5.1 3.8 1.1 -1.9 68 41 24 1023 1020 7 2 17 0.00
2011-4-18 25.8 15.2 5.7 5.8 1.6 -2.9 76 43 23 1024 1018 9 2 18 0.00
2011-4-19 24.8 14.8 5.4 6.3 2.9 -0.9 75 48 25 1020 1016 8 2 19 0.00
2011-4-20 26.1 15.4 5.7 8.4 5.1 2.4 84 55 26 1023 1017 8 2 18 0.00
2011-4-21 25.6 15.9 8.0 8.1 5.2 1.2 83 54 21 1023 1019 10 2 18 0.00
2011-4-22 25.4 15.6 8.0 8.4 4.5 1.3 74 51 24 1020 1016 8 2 16 0.00
2011-4-23 16.7 13.9 11.5 12.2 9.8 6.9 98 77 63 1020 1016 5 1 13 0.10
2011-4-24 24.9 16.1 11.2 13.4 9.7 4.7 99 70 36 1021 1018 6 1 13 0.10
2011-4-25 26.1 16.4 11.3 13.8 11.0 8.6 91 72 35 1020 1012 7 1 15 0.00
2011-4-26 24.1 17.6 12.3 13.4 7.8 3.2 97 57 32 1014 1011 11 3 24 0.00
2011-4-27 25.3 17.3 11.3 10.6 8.5 6.6 75 58 37 1014 1012 10 2 20 0.00
2011-4-28 25.3 16.2 8.1 13.3 8.4 4.8 92 64 32 1014 1012 8 1 16 0.10
2011-4-29 24.3 16.2 8.1 11.0 8.9 6.8 93 66 35 1014 1010 13 2 20 0.00
2011-4-30 22.6 15.5 12.6 14.1 10.9 8.4 97 76 44 1011 1004 5 1 12 0.33
2011-5-1 27.5 13.6 12.5 8.9 8.2 6.3 74 70 65 1011 1004 9 1 15 0.00
2011-5-2 23.2 16.0 8.4 12.8 9.8 6.9 92 69 44 1012 1006 6 1 16 0.00
2011-5-3 27.7 18.3 13.5 14.1 11.1 7.5 93 65 37 1011 1004 7 1 19 0.00
2011-5-4 30.2 18.5 8.4 12.7 9.3 6.4 91 59 29 1018 1010 7 1 13 0.00
2011-5-5 29.3 18.9 11.5 6.7 2.3 -2.7 58 35 21 1026 1018 11 2 22 0.00
2011-5-6 27.0 17.9 9.9 9.2 3.2 -3.1 84 40 22 1028 1026 7 2 12 0.00
2011-5-7 25.7 16.9 8.5 12.5 8.4 3.7 97 62 29 1028 1024 9 2 17 0.00
2011-5-8 26.6 17.1 7.8 12.8 8.4 3.8 93 61 30 1025 1020 10 2 18 0.00
2011-5-9 26.4 18.7 11.6 10.8 2.4 -1.2 92 36 22 1028 1021 11 3 23 0.97
2011-5-10 28.8 20.4 11.1 6.9 3.3 0.2 50 34 21 1028 1025 10 3 21 0.00
2011-5-11 30.3 20.5 9.3 9.6 4.8 1.2 60 38 20 1028 1020 10 1 21 0.00
2011-5-12 32.3 23.3 11.3 8.3 4.7 1.8 62 32 20 1023 1019 5 1 43 0.00
2011-5-13 30.8 23.7 12.8 12.0 8.0 2.9 73 39 22 1023 1020 8 2 17 0.00
2011-5-14 28.3 19.6 11.2 13.7 9.3 5.9 92 56 26 1022 1018 9 2 18 0.00
2011-5-15 23.3 16.7 11.6 17.4 12.3 4.6 98 77 44 1019 1013 11 2 24 0.61
2011-5-16 27.2 17.8 9.4 6.7 3.4 1.3 70 41 21 1025 1019 12 3 38 0.00
2011-5-17 28.3 18.8 8.1 7.9 5.2 2.1 76 46 22 1026 1020 12 2 22 0.00
2011-5-18 29.1 19.0 9.4 12.3 8.0 4.8 89 52 26 1023 1018 7 2 17 1.57
2011-5-19 28.4 19.3 11.4 13.3 10.3 8.6 93 61 31 1022 1020 8 2 17 0.00
2011-5-20 29.9 20.8 10.3 12.5 9.0 5.9 87 52 23 1024 1021 9 2 16 0.00
2011-5-21 32.8 22.7 11.4 13.3 10.4 8.2 84 50 27 1024 1018 8 2 19 0.00
2011-5-22 33.4 23.8 14.8 14.7 10.9 8.6 74 47 28 1021 1018 9 1 16 0.00
2011-5-23 34.6 23.7 13.4 12.6 10.0 7.6 74 46 21 1023 1020 9 2 20 0.00
2011-5-24 35.0 25.7 15.7 13.2 11.0 8.7 71 42 23 1024 1020 9 2 21 0.00
2011-5-25 35.4 30.1 19.6 12.9 10.3 8.6 61 30 22 1022 1020 10 3 21 0.00
2011-5-26 35.2 29.3 18.6 12.6 11.0 8.8 67 34 24 1021 1017 9 2 17 0.00
2011-5-27 31.8 25.6 15.5 17.8 15.3 10.9 91 56 33 1018 1014 10 2 16 0.00
2011-5-28 30.9 23.3 16.6 17.4 9.9 5.0 92 46 25 1017 1013 11 2 21 0.00
2011-5-29 33.4 25.3 11.8 11.8 8.8 6.5 84 39 20 1021 1017 8 2 14 0.00
2011-5-30 33.7 24.9 15.0 10.8 7.9 4.8 63 36 19 1022 1018 9 2 17 0.00
2011-5-31 28.5 22.8 14.9 15.8 13.0 11.1 81 56 36 1019 1017 10 2 22 0.00
2011-6-1 29.9 17.9 17.2 14.9 14.0 10.5 87 78 74 1021 1015 10 0 18 0.00
2011-6-2 29.4 24.3 20.0 19.8 15.3 11.6 83 60 36 1022 1020 7 2 16 0.10
2011-6-3 33.3 22.0 16.3 17.8 14.8 11.4 94 69 28 1022 1020 8 2 19 0.53
2011-6-4 32.7 24.1 15.4 17.0 14.3 12.1 94 59 30 1021 1016 7 1 15 0.00
2011-6-5 33.9 23.9 16.8 17.4 13.6 10.8 96 58 28 1017 1013 10 2 21 2.62
2011-6-6 32.3 26.2 20.1 17.4 14.3 12.1 80 50 32 1013 1010 8 2 16 0.00
2011-6-7 27.4 21.6 17.8 19.1 16.9 14.8 97 76 49 1011 1008 10 2 18 0.33
2011-6-8 29.4 23.3 18.2 16.9 13.6 10.4 89 57 35 1015 1011 9 2 26 0.00
2011-6-9 30.9 23.7 16.6 16.1 10.3 6.7 80 46 28 1018 1014 9 2 28 0.00
2011-6-10 29.8 22.6 16.1 12.7 10.3 7.3 76 49 28 1019 1016 10 2 15 0.00
2011-6-11 30.6 22.4 16.3 13.7 12.0 9.4 83 55 29 1020 1016 11 2 22 0.00
2011-6-12 32.2 24.5 15.6 13.6 11.2 9.4 84 47 28 1020 1018 9 2 20 0.00
2011-6-13 31.7 25.3 17.2 14.8 12.6 10.0 81 48 28 1020 1018 7 2 17 0.00
2011-6-14 33.0 24.9 16.7 19.0 15.2 11.9 88 58 29 1020 1016 10 1 20 3.15
2011-6-15 35.7 25.4 15.2 15.9 12.5 9.7 93 50 22 1022 1019 10 2 19 0.00
2011-6-16 34.1 28.2 17.2 16.3 13.3 11.6 80 42 27 1021 1020 10 2 19 0.00
2011-6-17 32.6 26.4 17.6 16.1 14.6 11.8 80 49 33 1021 1020 12 3 23 0.00
2011-6-18 32.6 27.0 19.4 18.3 15.3 11.8 84 52 29 1020 1014 10 4 27 0.00
2011-6-19 30.7 25.3 15.8 18.6 10.9 6.8 80 44 24 1019 1013 11 3 21 0.00
2011-6-20 32.8 26.9 14.6 12.8 10.7 8.6 81 39 25 1021 1018 10 2 21 0.00
2011-6-21 34.5 25.1 14.1 13.2 10.8 7.9 73 45 21 1024 1020 7 2 15 0.00
2011-6-22 34.2 26.9 17.4 17.8 14.6 12.0 79 50 29 1024 1020 7 2 16 0.00
2011-6-23 32.9 27.4 18.3 19.3 17.2 14.7 96 57 34 1022 1019 8 2 17 0.00
2011-6-24 35.3 25.7 18.6 20.2 15.5 9.4 96 60 29 1021 1019 11 2 19 0.00
2011-6-25 37.6 30.1 16.3 15.9 10.9 6.5 86 34 17 1024 1020 9 2 17 0.00
2011-6-26 37.9 30.0 19.8 14.1 9.7 5.4 63 31 17 1025 1023 10 2 17 0.00
2011-6-27 38.6 29.0 16.6 15.3 10.2 7.2 72 36 17 1024 1020 10 2 17 0.00
2011-6-28 34.7 29.9 19.2 14.8 13.1 10.7 59 37 28 1021 1016 12 3 21 0.00
2011-6-29 38.6 31.2 17.8 16.3 12.1 8.7 67 34 20 1016 1014 10 3 23 0.00
2011-6-30 34.8 28.4 20.7 18.8 17.2 15.0 80 53 35 1016 1013 11 3 22 0.00
2011-7-1 33.9 28.7 20.9 19.2 16.9 15.0 84 51 34 1016 1013 10 2 21 0.00
2011-7-2 26.1 22.5 18.6 17.5 14.5 12.4 86 62 44 1015 1011 9 2 21 0.97
2011-7-3 32.4 26.3 18.8 16.4 13.8 11.1 83 49 29 1016 1013 9 2 18 0.00
2011-7-4 34.1 27.0 19.2 19.4 17.0 14.6 86 56 32 1019 1016 8 2 15 0.00
2011-7-5 33.2 26.7 19.8 19.8 16.6 13.3 91 57 31 1016 1014 8 2 18 0.20
2011-7-6 36.0 28.8 19.4 18.7 15.4 12.4 93 48 27 1017 1015 11 2 18 4.11
2011-7-7 35.5 28.9 20.9 19.8 17.3 13.9 84 52 28 1018 1016 10 3 22 0.00
2011-7-8 36.2 29.6 20.6 18.2 15.1 10.6 83 45 23 1020 1016 8 3 19 0.00
2011-7-9 36.8 29.8 20.8 20.8 16.4 11.6 86 48 22 1021 1020 8 2 20 0.00
2011-7-10 36.5 27.1 20.6 20.7 19.3 17.4 93 66 32 1021 1018 7 2 14 0.00
2011-7-11 36.2 28.7 20.4 20.1 17.9 14.8 90 57 30 1020 1017 8 2 16 0.00
2011-7-12 38.2 31.9 18.6 17.2 13.9 11.3 75 36 21 1018 1015 8 2 15 0.00
2011-7-13 37.9 32.2 25.8 18.0 12.4 10.1 62 31 20 1015 1010 8 3 22 0.00
2011-7-14 37.6 29.1 21.8 20.6 16.2 13.1 75 48 26 1018 1012 9 2 17 0.00
2011-7-15 34.2 27.4 19.4 15.4 13.7 11.9 68 45 28 1021 1018 8 2 17 0.00
2011-7-16 34.4 27.9 19.4 13.7 11.7 8.6 67 38 25 1020 1016 11 2 20 0.00
2011-7-17 34.1 26.6 17.3 17.7 15.1 12.4 89 52 28 1017 1011 12 3 24 0.00
2011-7-18 33.0 27.5 19.4 20.3 11.7 6.8 88 42 21 1012 1010 11 3 24 0.00
2011-7-19 33.9 26.3 18.1 16.6 12.7 9.1 74 45 23 1012 1007 10 2 16 0.00
2011-7-20 29.8 24.6 18.5 12.6 10.4 7.7 66 42 31 1013 1009 14 4 30 0.00
2011-7-21 32.0 25.4 16.5 14.1 11.7 9.6 81 45 27 1013 1010 11 3 21 0.00
2011-7-22 33.4 26.4 17.7 15.7 12.4 7.3 74 45 22 1014 1011 10 3 20 0.00
2011-7-23 32.3 25.3 19.2 18.6 12.7 6.3 82 51 20 1014 1010 12 2 25 0.00
2011-7-24 28.3 23.8 18.6 13.4 11.9 9.9 69 48 39 1010 1006 13 3 27 0.00
2011-7-25 32.2 24.1 13.7 12.6 8.7 4.7 81 40 21 1012 1008 8 2 17 0.00
2011-7-26 31.9 25.8 16.3 14.7 10.3 6.9 70 41 21 1018 1012 12 2 20 0.00
2011-7-27 23.6 19.1 17.5 18.6 16.3 14.2 96 85 60 1020 1016 5 1 13 2.44
2011-7-28 28.9 23.5 16.1 18.9 14.6 12.1 94 60 40 1020 1016 8 2 15 0.00
2011-7-29 32.9 24.1 15.7 18.6 15.5 11.7 94 62 30 1019 1016 13 1 30 1.78
2011-7-30 33.1 27.2 18.6 17.6 15.1 10.9 90 51 27 1018 1015 10 2 20 0.00
2011-7-31 32.9 26.3 16.2 17.0 14.7 11.4 93 52 28 1016 1014 8 2 17 0.00
2011-8-1 25.2 20.7 18.8 17.2 14.3 11.3 90 69 43 1019 1016 1 0 4 0.00
2011-8-2 36.7 28.2 15.6 16.2 12.0 9.3 84 40 21 1021 1018 10 2 18 0.00
2011-8-3 34.5 25.9 16.0 16.3 12.9 10.1 75 48 25 1023 1020 9 2 17 0.00
2011-8-4 36.3 26.3 17.5 15.8 13.4 9.4 71 47 28 1020 1016 11 2 21 0.00
2011-8-5 36.0 27.7 16.6 16.9 14.6 12.1 81 49 28 1017 1015 8 2 17 0.00
2011-8-6 34.2 27.0 17.8 19.4 16.6 12.8 89 57 28 1017 1015 8 2 17 0.00
2011-8-7 33.4 27.8 20.5 21.2 18.6 15.9 97 60 37 1016 1014 9 2 18 0.00
2011-8-8 34.3 26.5 21.4 21.8 19.5 15.9 96 69 39 1016 1014 8 2 16 0.00
2011-8-9 33.1 26.0 19.8 20.7 14.2 11.4 87 51 30 1019 1015 11 2 20 0.00
2011-8-10 36.1 28.9 18.2 14.2 7.8 4.3 65 29 16 1023 1020 7 2 15 0.00
2011-8-11 36.0 27.0 15.7 8.0 6.4 4.0 52 29 17 1024 1018 9 2 21 0.00
2011-8-12 35.2 26.4 13.2 12.1 9.5 6.1 65 37 19 1022 1015 11 2 22 0.00
2011-8-13 34.1 27.4 15.6 14.3 11.5 7.7 72 41 20 1016 1012 8 2 16 0.00
2011-8-14 34.8 26.6 17.1 19.2 14.3 12.2 76 51 27 1015 1014 8 2 16 0.00
2011-8-15 33.4 24.6 18.6 19.6 17.5 13.3 89 67 39 1019 1014 5 1 10 0.00
2011-8-16 36.6 29.6 17.5 19.4 14.6 11.3 94 44 27 1020 1017 10 1 20 0.00
2011-8-17 38.1 30.4 20.1 17.9 15.2 13.9 71 43 25 1020 1017 6 1 15 0.00
2011-8-18 37.0 29.7 19.2 18.3 16.1 14.1 76 48 26 1021 1018 6 1 14 0.00
2011-8-19 36.6 30.8 21.1 19.1 14.7 8.8 82 43 19 1023 1021 5 1 12 0.00
2011-8-20 39.4 30.4 18.6 17.8 12.8 7.6 87 40 17 1024 1020 5 1 15 0.00
2011-8-21 40.9 31.3 19.6 18.4 13.3 8.8 65 36 19 1023 1020 5 0 14 0.00
2011-8-22 42.7 33.0 21.2 15.9 11.4 8.1 57 30 14 1021 1018 9 1 21 0.00
2011-8-23 39.2 34.3 21.5 14.1 10.9 8.8 52 26 17 1021 1018 4 0 12 0.00
2011-8-24 33.9 26.1 21.4 11.0 10.4 8.2 49 39 21 1019 1017 0 0 6 0.00
2011-8-25 39.3 30.2 20.1 12.7 8.7 5.6 52 30 15 1019 1016 5 0 17 0.00
2011-8-26 38.8 28.6 19.4 11.6 8.7 7.5 49 32 16 1017 1013 9 1 18 0.00
2011-8-27 35.3 26.9 19.5 22.3 11.6 4.0 75 42 17 1019 1012 9 1 21 9.09
2011-8-28 35.6 26.2 16.7 17.5 12.5 9.4 87 47 21 1019 1016 9 1 19 0.00
2011-8-29 33.7 26.8 15.4 16.6 12.9 7.6 86 45 31 1018 1015 10 2 20 0.00
2011-8-30 33.8 26.6 16.1 13.7 10.8 8.2 65 40 21 1016 1014 9 2 21 0.00
2011-8-31 33.8 27.0 17.0 16.3 14.3 12.4 84 48 30 1018 1016 11 2 20 0.00
2011-9-1 33.6 26.3 18.7 20.1 16.7 14.1 89 58 34 1019 1018 10 2 20 0.00
2011-9-2 35.2 27.4 19.4 21.1 18.4 14.7 93 61 33 1019 1016 8 2 16 0.00
2011-9-3 38.2 29.4 21.8 20.3 18.2 15.2 83 53 27 1019 1016 9 2 16 0.00
2011-9-4 33.0 25.3 20.1 22.6 17.7 14.1 90 65 36 1020 1016 9 2 21 0.00
2011-9-5 32.3 25.7 18.0 21.8 16.8 12.3 98 62 34 1022 1017 7 2 18 1.78
2011-9-6 35.9 26.9 17.1 16.4 11.9 8.4 82 44 20 1024 1021 7 2 18 0.00
2011-9-7 31.7 24.4 16.9 19.8 15.2 11.6 93 59 32 1023 1016 7 1 13 0.00
2011-9-8 34.2 26.1 18.8 17.4 14.1 10.2 79 51 27 1017 1014 10 2 17 0.00
2011-9-9 22.3 21.4 20.8 18.5 18.4 18.3 88 83 79 1019 1017 4 1 6 0.00
2011-9-10 20.3 20.3 20.2 19.1 19.0 18.8 93 92 91 1019 1019 4 1 5 0.00
2011-9-11 33.0 28.4 20.2 17.8 14.7 11.8 78 46 30 1021 1019 6 2 14 0.00
2011-9-13 28.7 22.2 17.7 20.1 18.2 16.8 96 80 52 1019 1017 4 1 9 0.00
2011-9-14 19.4 18.9 18.6 17.0 16.2 13.2 88 84 67 1019 1018 2 0 3 0.00
2011-9-15 23.6 20.8 18.9 12.6 11.7 11.1 67 57 47 1020 1019 1 0 3 0.00
2011-9-16 27.1 17.2 15.6 12.8 11.2 10.3 74 68 41 1020 1019 4 1 8 0.00
2011-9-17 26.2 19.4 15.8 12.4 11.4 10.6 72 62 43 1019 1016 4 1 8 0.00
2011-9-18 19.7 19.6 19.4 17.6 16.9 16.5 91 86 82 1009 1008 1 0 6 0.00
2011-9-19 19.8 14.9 11.6 19.3 12.2 8.5 97 84 64 1011 1007 5 1 13 0.00
2011-9-20 11.4 11.4 11.4 9.1 9.1 9.1 86 86 86 1011 1011 0 0 3 0.00
2011-9-21 19.1 14.7 13.5 10.4 7.3 6.8 65 62 57 1021 1019 3 1 5 0.00
2011-9-22 19.6 18.5 17.6 11.3 11.1 10.7 66 62 57 1019 1018 1 0 3 0.00
2011-9-23 20.8 19.7 18.5 15.0 14.6 13.2 80 72 62 1018 1017 3 0 4 0.00
2011-9-24 24.2 18.8 16.9 18.6 16.6 14.6 98 87 66 1019 1017 3 0 6 0.00
2011-9-25 27.0 21.6 18.6 19.8 18.8 17.7 99 86 57 1023 1020 4 1 6 0.00
2011-9-26 22.7 20.5 18.9 14.7 12.3 9.1 75 61 42 1025 1023 5 1 10 0.00
2011-9-27 33.2 32.7 32.4 7.4 7.1 6.7 21 20 20 1026 1025 7 3 13 0.00
2011-9-28 30.6 29.8 28.4 8.2 7.7 7.3 28 25 24 1025 1025 10 4 21 0.00
2011-9-29 21.6 21.6 21.6 6.9 6.9 6.9 39 39 39 1026 1026 3 2 5 0.00
2011-9-30 19.7 19.3 18.3 8.3 6.4 4.8 52 43 39 1027 1026 4 1 10 0.00
2011-10-1 18.8 18.7 18.5 9.3 9.2 9.1 55 54 54 1025 1025 0 0 0 0.00
2011-10-3 33.3 27.4 13.6 10.1 6.1 4.7 57 27 18 1026 1024 7 2 14 0.00
2011-10-4 16.3 15.2 14.4 8.4 7.6 6.7 67 60 53 1024 1023 3 0 5 0.00
2011-10-5 21.8 14.0 12.2 11.5 6.9 5.2 66 63 51 1024 1022 4 1 5 0.00
2011-10-6 19.8 18.9 17.4 16.9 16.2 15.3 89 84 82 1020 1019 3 0 4 0.00
2011-10-7 25.3 21.9 17.3 16.2 7.9 4.3 93 43 32 1019 1008 14 4 28 0.00
2011-10-10 14.8 14.5 14.1 5.4 5.2 5.0 55 53 52 1023 1022 0 0 2 0.00
2011-10-13 25.9 20.2 16.6 16.8 15.3 7.1 92 75 42 1020 1016 8 1 13 0.00
2011-10-14 14.4 13.8 13.1 0.3 -0.2 -0.9 39 38 38 1025 1024 6 3 21 0.00
2011-10-15 10.7 10.7 10.7 -3.4 -3.4 -3.4 37 37 37 1026 1026 5 3 9 0.00
2011-10-17 22.3 16.1 10.1 3.4 1.4 -0.7 47 38 29 1027 1025 5 2 8 0.00
2011-10-18 7.5 6.9 6.6 6.5 5.7 5.3 93 92 91 1025 1024 3 1 5 0.00
2011-10-19 24.2 18.5 12.9 12.7 9.9 6.4 90 60 33 1025 1020 9 3 17 0.00
2011-10-20 21.7 15.7 14.2 14.4 12.6 8.9 96 83 44 1020 1016 6 1 11 0.00
2011-10-21 11.3 11.1 10.8 0.6 0.6 0.5 49 48 48 1024 1024 1 0 6 0.00
2011-10-23 11.1 10.1 9.2 3.4 2.4 1.6 61 59 57 1022 1021 4 0 5 0.00
2011-10-24 16.5 14.3 12.3 5.4 4.7 4.2 60 53 47 1017 1016 7 2 10 0.00
2011-10-25 18.8 17.7 16.3 16.4 14.3 12.3 91 81 72 1014 1012 8 3 17 0.10
2011-10-26 20.8 16.7 14.7 17.6 15.8 14.7 100 95 77 1018 1016 4 0 5 3.38
2011-10-27 14.1 13.2 12.7 9.9 9.3 8.8 82 77 75 1025 1022 2 1 5 0.00
2011-10-28 12.7 12.4 12.2 9.9 9.7 9.6 84 83 82 1025 1025 2 0 4 0.00
2011-10-29 23.2 19.7 16.7 11.3 11.0 10.3 70 58 44 1027 1026 6 1 10 0.00
2011-10-30 15.6 14.9 11.8 12.9 12.2 10.9 94 84 81 1026 1024 3 0 0 0.00
2011-10-31 14.6 14.4 14.0 11.2 10.9 10.6 80 80 80 1024 1024 0 0 0 0.00
2011-11-1 12.7 12.6 12.4 10.1 9.9 9.8 86 84 83 1024 1023 0 0 3 0.00
2011-11-2 12.8 11.7 11.0 11.4 10.4 9.6 93 92 91 1023 1022 2 0 3 0.00
2011-11-3 15.8 15.7 15.7 12.8 12.7 12.5 82 82 81 1019 1019 4 2 10 0.00
2011-11-4 16.3 16.2 16.1 12.7 12.3 11.9 79 78 76 1017 1017 6 2 11 0.00
2011-11-5 17.0 15.9 15.2 12.6 12.2 11.7 84 78 72 1015 1014 8 3 19 0.20
2011-11-7 13.3 12.6 12.1 12.2 11.1 9.1 94 90 81 1020 1019 7 3 12 0.30
2011-11-8 15.1 14.0 12.9 13.7 10.6 6.4 99 82 57 1024 1021 8 3 13 24.23
2011-11-9 15.2 12.8 10.2 12.1 9.8 7.7 93 83 62 1024 1023 5 1 10 0.20
2011-11-10 10.1 9.6 8.9 8.7 8.2 7.7 92 91 90 1023 1022 1 0 5 0.00
2011-11-11 13.5 8.8 8.2 11.3 7.2 6.3 91 89 87 1023 1021 0 0 0 0.00
2011-11-12 10.9 10.8 10.7 2.1 1.9 1.7 55 54 53 1029 1028 1 0 5 0.00
2011-11-13 5.7 5.0 4.3 -0.9 -1.6 -1.9 64 62 59 1031 1031 3 1 5 0.00
2011-11-14 8.1 4.0 1.8 -1.6 -2.9 -4.2 65 61 48 1030 1023 4 1 5 0.00
2011-11-15 9.2 6.8 4.5 4.2 1.9 -1.9 82 72 61 1023 1019 4 1 5 0.00
2011-11-17 20.1 12.3 3.7 4.3 1.4 -1.8 69 50 31 1026 1023 4 1 6 0.00
2011-11-18 15.4 12.5 7.7 4.6 3.8 3.2 73 56 44 1028 1027 3 1 5 0.00
2011-11-20 19.0 14.8 9.7 4.1 2.1 1.0 57 43 33 1025 1023 5 1 9 0.00
2011-11-21 15.6 12.3 9.3 3.6 2.3 1.2 59 51 38 1023 1021 6 1 9 0.00
2011-11-22 14.8 14.6 14.3 4.2 3.8 3.3 49 48 47 1017 1016 10 4 17 0.00
2011-11-24 18.9 15.3 12.7 4.7 4.3 3.8 57 48 38 1029 1026 8 2 16 0.00
2011-11-26 17.1 9.1 5.6 9.4 6.2 3.8 92 83 52 1030 1028 4 1 5 0.00
2011-11-27 19.5 16.5 12.0 6.6 5.8 4.9 63 50 43 1029 1029 5 1 9 0.00
2011-11-29 20.2 8.1 5.6 9.0 5.7 4.6 96 88 38 1027 1026 3 1 6 0.00
2011-12-1 19.9 17.8 15.7 10.8 10.2 9.4 71 62 51 1029 1029 7 2 33 0.00
2011-12-3 14.6 13.1 12.3 12.1 10.8 10.4 96 87 78 1021 1020 4 1 7 0.00
2011-12-4 12.4 11.9 11.4 10.6 8.8 7.7 89 82 77 1020 1019 5 2 6 0.00
2011-12-5 16.1 15.9 15.7 5.9 5.8 5.6 53 51 50 1010 1010 12 6 23 0.00
2011-12-7 13.9 13.7 13.1 7.3 6.8 6.0 65 63 61 1021 1020 6 2 10 0.00
2011-12-8 14.5 14.3 14.2 7.7 7.0 6.5 65 62 59 1021 1020 8 1 10 0.00
2011-12-9 8.4 8.2 8.1 7.9 7.8 7.6 97 97 97 1025 1025 1 0 4 0.00
2011-12-11 13.8 13.1 12.0 12.3 11.7 11.2 96 92 87 1023 1020 5 1 10 0.00
2011-12-12 15.4 11.9 10.7 13.3 11.3 9.7 100 96 80 1018 1016 6 2 8 1.07
2011-12-17 10.6 10.6 10.6 0.1 0.1 0.1 49 49 49 1001 1001 15 9 27 0.00
2011-12-19 9.2 4.0 0.4 -6.1 -7.6 -8.4 52 43 33 1018 1015 5 1 9 0.00
2011-12-20 6.8 3.7 -2.2 -2.9 -4.6 -7.6 64 54 41 1019 1012 6 1 14 0.00
2011-12-21 14.0 7.1 1.4 1.2 -3.2 -5.3 69 49 32 1017 1014 5 1 10 0.00
2011-12-22 15.6 12.1 -0.9 -2.2 -4.6 -7.1 61 32 24 1022 1018 9 2 14 0.00
2011-12-23 3.1 2.5 0.3 -2.7 -3.8 -7.2 67 63 55 1024 1023 4 1 4 0.00
2011-12-24 7.7 6.8 5.4 0.2 -0.6 -2.4 61 59 57 1020 1018 9 4 13 0.00
2011-12-25 8.4 3.5 2.2 -2.1 -4.4 -5.3 61 56 48 1034 1025 4 1 14 0.00
2011-12-26 12.3 3.1 0.8 -0.9 -4.6 -5.7 65 58 37 1035 1033 6 1 12 0.00
2011-12-28 10.8 4.6 2.6 4.2 1.6 -0.2 95 82 53 1012 1005 7 1 5 0.00
2011-12-29 12.6 8.1 1.7 7.2 2.5 -2.1 97 69 55 1005 999 10 2 10 0.00
2011-12-30 13.8 6.9 0.7 6.3 1.6 -4.5 90 70 46 999 994 14 2 14 0.00
2011-12-31 14.9 4.1 -1.6 -3.6 -6.4 -8.3 63 48 25 1004 998 9 2 10 0.00
2012-1-1 16.8 8.6 1.2 8.9 -2.7 -7.4 92 47 26 1008 1002 12 2 12 0.00